Time;durP1;ratioP1;P1;durP2;ratioP2;P2;SDS_P1;SDS_P2;PMS_P1;PMS_P2;Temp;Humidity;BMP_temperature;BMP_pressure;BME280_temperature;BME280_humidity;BME280_pressure;Samples;Min_cycle;Max_cycle;Signal;HPM_P1;HPM_P2
2023/05/08 00:00:21;;;;;;;6.40;4.80;;;10.30;99.90;;;;;;4789340;29;20143;-80
2023/05/08 00:02:47;;;;;;;5.40;4.13;;;10.40;99.90;;;;;;4805547;29;20058;-81
2023/05/08 00:05:13;;;;;;;4.95;3.65;;;10.20;99.90;;;;;;4789282;29;20118;-82
2023/05/08 00:07:38;;;;;;;5.65;4.45;;;10.30;99.90;;;;;;4808214;29;20139;-80
2023/05/08 00:10:05;;;;;;;5.63;3.97;;;10.40;99.90;;;;;;4789457;29;20047;-79
2023/05/08 00:12:31;;;;;;;5.90;4.07;;;10.20;99.90;;;;;;4805739;29;20062;-81
2023/05/08 00:14:57;;;;;;;5.13;3.53;;;10.20;99.90;;;;;;4805695;29;20046;-80
2023/05/08 00:17:22;;;;;;;6.07;3.83;;;10.20;99.90;;;;;;4806571;29;20042;-80
2023/05/08 00:19:48;;;;;;;5.35;3.67;;;10.20;99.90;;;;;;4818129;29;20046;-80
2023/05/08 00:22:14;;;;;;;6.38;3.88;;;10.70;99.90;;;;;;4822939;29;20050;-80
2023/05/08 00:24:40;;;;;;;5.40;3.85;;;10.10;99.90;;;;;;4823822;29;20535;-80
2023/05/08 00:27:07;;;;;;;5.15;3.88;;;10.10;99.90;;;;;;4823906;29;20409;-80
2023/05/08 00:29:33;;;;;;;6.57;4.60;;;10.10;99.90;;;;;;4805702;29;20118;-80
2023/05/08 00:31:59;;;;;;;6.70;4.65;;;10.20;99.90;;;;;;4823678;29;20054;-81
2023/05/08 00:34:25;;;;;;;4.78;3.88;;;10.10;99.90;;;;;;4822583;29;20058;-80
2023/05/08 00:36:51;;;;;;;5.53;4.20;;;10.00;99.90;;;;;;4805004;29;20055;-80
2023/05/08 00:39:17;;;;;;;6.60;4.15;;;10.50;99.90;;;;;;4806276;29;20051;-80
2023/05/08 00:41:43;;;;;;;6.70;4.70;;;10.10;99.90;;;;;;4821439;29;20038;-80
2023/05/08 00:44:09;;;;;;;5.90;4.10;;;9.90;99.90;;;;;;4807396;29;20058;-80
2023/05/08 00:46:35;;;;;;;6.88;4.28;;;10.80;99.90;;;;;;4807197;29;20495;-80
2023/05/08 00:49:03;;;;;;;8.05;4.85;;;9.80;99.90;;;;;;4793267;29;20051;-80
2023/05/08 00:51:30;;;;;;;6.65;4.65;;;9.80;99.90;;;;;;4789947;29;20051;-80
2023/05/08 00:53:56;;;;;;;5.90;4.43;;;9.80;99.90;;;;;;4805484;29;20059;-81
2023/05/08 00:56:22;;;;;;;9.43;6.20;;;9.70;99.90;;;;;;4789166;29;20515;-83
2023/05/08 00:58:49;;;;;;;7.57;5.28;;;9.90;99.90;;;;;;4789214;29;20133;-80
2023/05/08 01:01:15;;;;;;;7.28;4.70;;;9.70;99.90;;;;;;4811293;29;20042;-80
2023/05/08 01:03:43;;;;;;;7.18;5.30;;;9.70;99.90;;;;;;4822929;29;20058;-82
2023/05/08 01:06:09;;;;;;;8.32;4.95;;;9.70;99.90;;;;;;4823169;29;20507;-80
2023/05/08 01:08:34;;;;;;;7.25;4.60;;;9.50;99.90;;;;;;4807157;29;20047;-81
2023/05/08 01:11:25;;;;;;;7.10;4.88;;;10.30;99.90;;;;;;4805300;29;20046;-80
2023/05/08 01:14:11;;;;;;;7.00;5.13;;;9.40;99.90;;;;;;4808799;29;20058;-80
2023/05/08 01:16:55;;;;;;;7.00;5.05;;;9.40;99.90;;;;;;4794766;29;20054;-80
2023/05/08 01:19:23;;;;;;;6.60;4.97;;;9.40;99.90;;;;;;4817311;29;20047;-81
2023/05/08 01:21:57;;;;;;;6.45;4.72;;;9.30;99.90;;;;;;4809544;29;20054;-81
2023/05/08 01:24:47;;;;;;;8.73;5.72;;;9.00;99.90;;;;;;4823587;29;20054;-81
2023/05/08 01:27:25;;;;;;;8.75;5.45;;;9.30;99.90;;;;;;4826505;29;20062;-80
2023/05/08 01:30:35;;;;;;;8.70;5.13;;;9.30;99.90;;;;;;4825676;29;20054;-81
2023/05/08 01:33:08;;;;;;;10.25;5.30;;;9.30;99.90;;;;;;4811519;29;20059;-80
2023/05/08 01:35:38;;;;;;;7.30;5.00;;;9.20;99.90;;;;;;4808001;29;20109;-83
2023/05/08 01:38:13;;;;;;;7.50;5.47;;;9.20;99.90;;;;;;4807924;29;20159;-81
2023/05/08 01:40:52;;;;;;;;;;;9.10;99.90;;;;;;4808763;29;20058;-81
2023/05/08 01:43:28;;;;;;;9.30;5.25;;;9.10;99.90;;;;;;4814058;29;19925;-81
2023/05/08 01:45:58;;;;;;;7.22;4.47;;;9.10;99.90;;;;;;4809778;29;20046;-81
2023/05/08 01:48:32;;;;;;;6.40;4.32;;;10.20;99.90;;;;;;4825871;29;20103;-80
2023/05/08 01:51:04;;;;;;;7.97;5.03;;;9.80;99.90;;;;;;4825846;29;20046;-81
2023/05/08 01:53:36;;;;;;;8.45;4.65;;;9.10;99.90;;;;;;4808190;29;20050;-80
2023/05/08 01:56:10;;;;;;;7.07;4.75;;;9.10;99.90;;;;;;4824684;29;20508;-81
2023/05/08 01:58:37;;;;;;;8.15;5.32;;;9.10;99.90;;;;;;4808203;29;20065;-80
2023/05/08 02:01:03;;;;;;;6.72;4.85;;;9.10;99.90;;;;;;4807910;29;20420;-81
2023/05/08 02:03:32;;;;;;;6.53;4.65;;;9.00;99.90;;;;;;4808273;29;20046;-81
2023/05/08 02:05:59;;;;;;;7.28;4.80;;;8.90;99.90;;;;;;4791319;29;20057;-80
2023/05/08 02:08:26;;;;;;;7.72;5.20;;;8.90;99.90;;;;;;4807711;29;20134;-80
2023/05/08 02:10:53;;;;;;;7.45;5.07;;;8.90;99.90;;;;;;4807529;29;20061;-80
2023/05/08 02:13:22;;;;;;;7.45;4.85;;;8.90;99.90;;;;;;4807473;29;20081;-80
2023/05/08 02:15:49;;;;;;;7.20;4.90;;;8.80;99.90;;;;;;4808436;29;20435;-80
2023/05/08 02:18:19;;;;;;;8.77;5.68;;;8.80;99.90;;;;;;4810506;29;20122;-80
2023/05/08 02:20:47;;;;;;;10.02;5.35;;;8.80;99.90;;;;;;4825374;29;20133;-80
2023/05/08 02:23:15;;;;;;;8.80;5.88;;;8.80;99.90;;;;;;4824902;29;20489;-80
2023/05/08 02:25:42;;;;;;;6.75;4.95;;;8.90;99.90;;;;;;4813570;29;20043;-80
2023/05/08 02:28:08;;;;;;;9.65;5.90;;;8.70;99.90;;;;;;4807507;29;20083;-80
2023/05/08 02:30:34;;;;;;;8.52;5.80;;;8.80;99.90;;;;;;4807304;29;20080;-80
2023/05/08 02:33:02;;;;;;;7.95;5.20;;;8.70;99.90;;;;;;4791193;29;20070;-81
2023/05/08 02:35:30;;;;;;;9.68;5.43;;;8.90;99.90;;;;;;4790646;29;20055;-81
2023/05/08 02:37:58;;;;;;;9.15;5.75;;;8.70;99.90;;;;;;4807859;29;20488;-81
2023/05/08 02:40:26;;;;;;;7.63;5.47;;;8.60;99.90;;;;;;4790977;29;20131;-81
2023/05/08 02:42:53;;;;;;;10.10;6.18;;;8.60;99.90;;;;;;4807131;29;20153;-81
2023/05/08 02:45:18;;;;;;;8.48;5.15;;;8.60;99.90;;;;;;4806914;29;20046;-81
2023/05/08 02:48:07;;;;;;;8.05;5.25;;;8.60;99.90;;;;;;4807887;29;20058;-80
2023/05/08 02:50:51;;;;;;;7.72;4.95;;;8.90;99.90;;;;;;4806976;29;20059;-80
2023/05/08 02:53:58;;;;;;;9.25;6.00;;;8.50;99.90;;;;;;4796658;29;20077;-81
2023/05/08 02:57:05;;;;;;;8.10;5.57;;;8.60;99.90;;;;;;4735983;30;20536;-82
2023/05/08 02:59:38;;;;;;;;;;;8.50;99.90;;;;;;4732733;30;20748;-80
2023/05/08 03:02:27;;;;;;;8.88;5.55;;;8.50;99.90;;;;;;4733535;30;19926;-81
2023/05/08 03:04:58;;;;;;;9.30;5.80;;;9.20;99.90;;;;;;4733244;30;20120;-80
2023/05/08 03:07:26;;;;;;;8.15;5.50;;;8.40;99.90;;;;;;4718288;30;20048;-80
2023/05/08 03:10:00;;;;;;;8.73;5.57;;;8.50;99.90;;;;;;4732673;30;20064;-81
2023/05/08 03:12:29;;;;;;;7.72;5.00;;;8.40;99.90;;;;;;4718651;30;20068;-81
2023/05/08 03:15:10;;;;;;;6.93;4.38;;;8.40;99.90;;;;;;4732721;30;20069;-80
2023/05/08 03:17:41;;;;;;;7.97;5.53;;;8.40;99.90;;;;;;4718731;30;20427;-81
2023/05/08 03:20:11;;;;;;;8.35;5.60;;;8.30;99.90;;;;;;4732755;30;20122;-80
2023/05/08 03:22:39;;;;;;;9.10;5.10;;;8.20;99.90;;;;;;4733130;30;20060;-80
2023/05/08 03:25:08;;;;;;;7.40;5.10;;;8.30;99.90;;;;;;4732092;30;20106;-80
2023/05/08 03:27:35;;;;;;;8.88;5.55;;;8.20;99.90;;;;;;4718403;30;20044;-81
2023/05/08 03:30:05;;;;;;;7.20;5.25;;;8.20;99.90;;;;;;4732469;30;20593;-81
2023/05/08 03:32:32;;;;;;;7.22;5.40;;;8.20;99.90;;;;;;4745475;30;20056;-80
2023/05/08 03:35:00;;;;;;;8.23;5.43;;;8.10;99.90;;;;;;4754342;29;20410;-81
2023/05/08 03:37:29;;;;;;;8.82;5.65;;;8.30;99.90;;;;;;4805330;29;20110;-80
2023/05/08 03:39:55;;;;;;;10.32;5.72;;;8.20;99.90;;;;;;4807017;29;20086;-80
2023/05/08 03:42:24;;;;;;;10.13;5.95;;;9.20;99.90;;;;;;4790551;29;20085;-80
2023/05/08 03:44:51;;;;;;;9.02;5.30;;;8.10;99.90;;;;;;4805873;29;20051;-81
2023/05/08 03:47:20;;;;;;;7.68;5.18;;;8.10;99.90;;;;;;4806048;29;20118;-80
2023/05/08 03:49:47;;;;;;;7.68;5.30;;;8.10;99.90;;;;;;4805756;29;20089;-81
2023/05/08 03:52:14;;;;;;;7.43;4.95;;;8.10;99.90;;;;;;4807806;29;20406;-80
2023/05/08 03:54:40;;;;;;;8.48;5.82;;;8.10;99.90;;;;;;4805689;29;20065;-80
2023/05/08 03:57:06;;;;;;;7.63;4.93;;;8.30;99.90;;;;;;4805756;29;20087;-81
2023/05/08 03:59:48;;;;;;;8.32;5.85;;;8.00;99.90;;;;;;4805640;29;20386;-80
2023/05/08 04:02:20;;;;;;;7.18;4.90;;;8.10;99.90;;;;;;4806435;29;20131;-80
2023/05/08 04:04:51;;;;;;;7.70;5.05;;;8.10;99.90;;;;;;4805461;29;20101;-80
2023/05/08 04:07:29;;;;;;;7.22;5.50;;;8.00;99.90;;;;;;4805694;29;20050;-80
2023/05/08 04:10:03;;;;;;;8.00;5.03;;;8.00;99.90;;;;;;4774479;29;20141;-80
2023/05/08 04:12:56;;;;;;;7.35;4.88;;;8.00;99.90;;;;;;4775663;29;20430;-80
2023/05/08 04:15:25;;;;;;;7.82;5.35;;;8.00;99.90;;;;;;4805628;29;20051;-80
2023/05/08 04:18:13;;;;;;;6.63;4.38;;;8.00;99.90;;;;;;4805561;29;20042;-80
2023/05/08 04:20:40;;;;;;;6.75;5.05;;;8.10;99.90;;;;;;4811621;29;20054;-81
2023/05/08 04:23:08;;;;;;;8.38;4.97;;;8.00;99.90;;;;;;4822144;29;20065;-80
2023/05/08 04:25:37;;;;;;;5.82;3.97;;;8.10;99.90;;;;;;4823416;29;20054;-80
2023/05/08 04:28:04;;;;;;;7.72;5.20;;;8.00;99.90;;;;;;4823829;29;20054;-80
2023/05/08 04:30:30;;;;;;;7.75;4.32;;;8.10;99.90;;;;;;4823765;29;20133;-80
2023/05/08 04:32:56;;;;;;;7.20;4.95;;;8.00;99.90;;;;;;4807127;29;20053;-80
2023/05/08 04:35:22;;;;;;;7.05;4.80;;;8.10;99.90;;;;;;4814818;29;20054;-80
2023/05/08 04:37:48;;;;;;;7.00;5.15;;;8.50;99.90;;;;;;4805044;29;20192;-80
2023/05/08 04:40:14;;;;;;;7.30;4.82;;;9.10;99.90;;;;;;4805677;29;20130;-81
2023/05/08 04:42:41;;;;;;;7.20;4.82;;;8.00;99.90;;;;;;4789765;29;20142;-80
2023/05/08 04:45:08;;;;;;;7.10;4.60;;;8.20;99.90;;;;;;4806159;29;20488;-80
2023/05/08 04:47:34;;;;;;;6.05;3.88;;;8.30;99.90;;;;;;4808386;29;20054;-81
2023/05/08 04:50:00;;;;;;;5.70;4.22;;;8.30;99.90;;;;;;4808844;29;20184;-80
2023/05/08 04:52:26;;;;;;;5.85;3.90;;;8.40;99.90;;;;;;4792611;29;20084;-80
2023/05/08 04:54:51;;;;;;;6.43;4.38;;;8.50;99.90;;;;;;4808676;29;20146;-80
2023/05/08 04:57:17;;;;;;;6.70;4.53;;;8.50;99.90;;;;;;4809854;29;20047;-80
2023/05/08 04:59:43;;;;;;;6.90;4.25;;;8.60;99.90;;;;;;4808692;29;20074;-80
2023/05/08 05:02:08;;;;;;;7.95;4.60;;;8.60;99.90;;;;;;4812056;29;20091;-80
2023/05/08 05:04:35;;;;;;;7.90;5.20;;;8.70;99.90;;;;;;4823552;29;20057;-81
2023/05/08 05:07:04;;;;;;;6.43;4.55;;;9.00;99.90;;;;;;4824931;29;20093;-80
2023/05/08 05:09:30;;;;;;;7.18;4.93;;;8.80;99.90;;;;;;4826219;29;20061;-80
2023/05/08 05:11:56;;;;;;;8.80;5.65;;;8.90;99.90;;;;;;4826794;29;20039;-80
2023/05/08 05:14:21;;;;;;;9.50;6.18;;;9.10;99.90;;;;;;4826524;29;20347;-80
2023/05/08 05:16:47;;;;;;;8.77;6.30;;;9.00;99.90;;;;;;4816273;29;20437;-80
2023/05/08 05:19:13;;;;;;;9.50;6.30;;;9.10;99.90;;;;;;4776910;29;20053;-80
2023/05/08 05:21:39;;;;;;;8.45;5.63;;;9.20;99.90;;;;;;4808616;29;20051;-80
2023/05/08 05:24:05;;;;;;;14.52;7.63;;;9.30;99.90;;;;;;4808139;29;20400;-81
2023/05/08 05:26:31;;;;;;;13.02;7.55;;;9.40;99.90;;;;;;4808533;29;20559;-80
2023/05/08 05:28:57;;;;;;;12.20;7.78;;;9.50;99.90;;;;;;4809166;29;20133;-81
2023/05/08 05:31:23;;;;;;;11.95;8.35;;;9.60;99.90;;;;;;4816797;29;20421;-80
2023/05/08 05:33:48;;;;;;;10.85;7.22;;;9.70;99.90;;;;;;4826325;29;20078;-80
2023/05/08 05:36:14;;;;;;;10.77;6.90;;;10.10;99.90;;;;;;4822507;29;20051;-80
2023/05/08 05:38:40;;;;;;;9.98;6.28;;;10.10;99.90;;;;;;4809746;29;20085;-80
2023/05/08 05:41:06;;;;;;;9.68;6.53;;;10.00;99.90;;;;;;4819902;29;20496;-81
2023/05/08 05:43:32;;;;;;;12.18;7.97;;;10.10;99.90;;;;;;4824995;29;20046;-83
2023/05/08 05:46:08;;;;;;;11.60;6.28;;;10.10;99.90;;;;;;4818455;29;20091;-82
2023/05/08 05:48:34;;;;;;;13.25;7.50;;;10.20;99.90;;;;;;4809278;29;20050;-81
2023/05/08 05:51:01;;;;;;;9.38;6.07;;;10.30;99.90;;;;;;4824056;29;20042;-82
2023/05/08 05:53:26;;;;;;;11.43;6.65;;;10.40;99.90;;;;;;4826326;29;20054;-81
2023/05/08 05:55:52;;;;;;;8.55;5.80;;;10.50;99.90;;;;;;4826957;29;20377;-81
2023/05/08 05:58:18;;;;;;;6.93;5.18;;;10.60;99.90;;;;;;4826371;29;20047;-82
2023/05/08 06:00:44;;;;;;;9.70;6.00;;;10.80;99.90;;;;;;4824651;29;20060;-83
2023/05/08 06:03:10;;;;;;;8.20;5.88;;;10.80;99.90;;;;;;4826413;29;20051;-84
2023/05/08 06:05:36;;;;;;;7.22;5.15;;;10.90;99.90;;;;;;4825392;29;20042;-81
2023/05/08 06:08:02;;;;;;;10.02;6.63;;;11.00;99.90;;;;;;4825719;29;20496;-82
2023/05/08 06:10:28;;;;;;;8.50;6.20;;;11.10;99.90;;;;;;4824401;29;20042;-82
2023/05/08 06:12:56;;;;;;;10.18;6.85;;;11.50;99.90;;;;;;4791517;29;20054;-82
2023/05/08 06:15:22;;;;;;;8.20;5.72;;;11.20;99.90;;;;;;4807800;29;20061;-82
2023/05/08 06:17:48;;;;;;;9.90;6.78;;;11.30;99.90;;;;;;4821829;29;20125;-82
2023/05/08 06:20:13;;;;;;;9.45;6.57;;;11.50;99.90;;;;;;4807655;29;20065;-82
2023/05/08 06:22:40;;;;;;;8.13;6.05;;;11.50;99.90;;;;;;4816215;29;20441;-81
2023/05/08 06:25:07;;;;;;;9.50;6.82;;;11.60;99.90;;;;;;4810724;29;20501;-82
2023/05/08 06:27:33;;;;;;;10.38;6.60;;;11.70;99.90;;;;;;4807121;29;20084;-81
2023/05/08 06:29:59;;;;;;;9.30;6.30;;;11.80;99.90;;;;;;4825208;29;20050;-82
2023/05/08 06:32:25;;;;;;;10.60;6.70;;;11.90;99.90;;;;;;4824011;29;20387;-81
2023/05/08 06:34:51;;;;;;;9.50;6.57;;;12.00;99.90;;;;;;4803711;29;20053;-81
2023/05/08 06:37:17;;;;;;;9.07;5.85;;;11.80;99.90;;;;;;4823475;29;20062;-82
2023/05/08 06:39:45;;;;;;;7.60;5.47;;;12.20;99.90;;;;;;4812547;29;20634;-81
2023/05/08 06:42:11;;;;;;;7.45;5.30;;;12.40;99.90;;;;;;4807166;29;20062;-81
2023/05/08 06:44:39;;;;;;;8.23;5.00;;;12.50;99.90;;;;;;4811991;29;20046;-81
2023/05/08 06:47:05;;;;;;;7.60;5.25;;;12.70;99.90;;;;;;4794110;29;20057;-81
2023/05/08 06:49:31;;;;;;;9.32;6.88;;;12.90;99.90;;;;;;4825245;29;20351;-81
2023/05/08 06:51:57;;;;;;;8.85;6.45;;;12.90;99.90;;;;;;4815250;29;20068;-79
2023/05/08 06:54:22;;;;;;;7.57;5.57;;;13.00;99.90;;;;;;4802787;29;20108;-79
2023/05/08 06:56:51;;;;;;;9.13;6.00;;;13.20;99.90;;;;;;4815192;29;20046;-80
2023/05/08 06:59:16;;;;;;;10.32;6.40;;;13.40;99.90;;;;;;4825192;29;20065;-80
2023/05/08 07:01:42;;;;;;;7.63;5.30;;;13.60;99.90;;;;;;4800849;29;20058;-79
2023/05/08 07:04:08;;;;;;;6.55;5.75;;;13.90;99.90;;;;;;4817753;29;20093;-81
2023/05/08 07:06:34;;;;;;;7.05;5.32;;;13.90;99.90;;;;;;4820353;29;20038;-81
2023/05/08 07:08:59;;;;;;;7.13;5.00;;;14.00;99.90;;;;;;4807386;29;20047;-79
2023/05/08 07:11:25;;;;;;;9.25;6.20;;;14.00;99.90;;;;;;4806090;29;20092;-80
2023/05/08 07:13:51;;;;;;;6.50;4.57;;;13.90;99.90;;;;;;4806735;29;20485;-80
2023/05/08 07:16:17;;;;;;;7.07;4.72;;;14.00;99.90;;;;;;4806602;29;20531;-81
2023/05/08 07:18:43;;;;;;;6.85;4.32;;;14.10;99.90;;;;;;4806481;29;20043;-81
2023/05/08 07:21:14;;;;;;;6.00;4.80;;;14.10;99.90;;;;;;4793428;29;20061;-79
2023/05/08 07:23:40;;;;;;;7.82;5.35;;;14.10;99.90;;;;;;4808464;29;20061;-79
2023/05/08 07:26:07;;;;;;;6.75;5.15;;;14.20;99.90;;;;;;4824738;29;20051;-78
2023/05/08 07:28:33;;;;;;;6.97;5.05;;;14.30;99.90;;;;;;4824716;29;20126;-80
2023/05/08 07:31:01;;;;;;;10.05;6.18;;;14.20;99.90;;;;;;4818644;29;20455;-79
2023/05/08 07:33:27;;;;;;;8.13;5.88;;;14.50;99.90;;;;;;4806580;29;20151;-80
2023/05/08 07:35:52;;;;;;;7.10;5.32;;;14.10;99.90;;;;;;4806435;29;20516;-80
2023/05/08 07:38:18;;;;;;;8.82;6.00;;;14.20;99.90;;;;;;4820962;29;20081;-81
2023/05/08 07:40:44;;;;;;;6.55;5.25;;;14.20;99.90;;;;;;4824550;29;20052;-79
2023/05/08 07:43:12;;;;;;;7.32;5.63;;;14.30;99.90;;;;;;4824568;29;20077;-83
2023/05/08 07:45:37;;;;;;;7.05;5.05;;;14.30;99.90;;;;;;4807530;29;20058;-83
2023/05/08 07:48:07;;;;;;;6.60;4.85;;;14.40;99.90;;;;;;4807853;29;20049;-80
2023/05/08 07:50:33;;;;;;;6.53;5.28;;;14.50;99.90;;;;;;4822558;29;20107;-81
2023/05/08 07:52:59;;;;;;;6.40;5.03;;;14.60;99.90;;;;;;4823704;29;20042;-81
2023/05/08 07:55:25;;;;;;;9.70;6.38;;;14.60;99.90;;;;;;4824259;29;20063;-81
2023/05/08 07:57:50;;;;;;;7.90;5.28;;;14.70;99.90;;;;;;4824521;29;20046;-81
2023/05/08 08:00:17;;;;;;;7.40;5.05;;;14.80;99.90;;;;;;4824199;29;20065;-81
2023/05/08 08:02:43;;;;;;;7.45;5.65;;;14.80;99.90;;;;;;4822823;29;20047;-81
2023/05/08 08:05:09;;;;;;;8.93;5.00;;;14.80;99.90;;;;;;4807638;29;20104;-80
2023/05/08 08:07:35;;;;;;;7.38;5.53;;;14.80;99.90;;;;;;4823128;29;20057;-80
2023/05/08 08:10:03;;;;;;;9.43;5.38;;;14.90;99.90;;;;;;4823985;29;20508;-79
2023/05/08 08:12:30;;;;;;;7.85;5.38;;;14.90;99.90;;;;;;4824300;29;20053;-79
2023/05/08 08:14:55;;;;;;;8.20;5.85;;;14.90;99.90;;;;;;4824305;29;20361;-79
2023/05/08 08:17:21;;;;;;;9.85;6.45;;;14.90;99.90;;;;;;4823405;29;20046;-81
2023/05/08 08:19:47;;;;;;;8.35;5.10;;;14.80;99.90;;;;;;4823902;29;20050;-80
2023/05/08 08:22:13;;;;;;;10.10;6.35;;;14.90;99.90;;;;;;4822037;29;20111;-80
2023/05/08 08:24:39;;;;;;;7.97;5.55;;;14.90;99.90;;;;;;4823479;29;20050;-79
2023/05/08 08:27:05;;;;;;;6.97;5.10;;;14.90;99.90;;;;;;4807107;29;20043;-79
2023/05/08 08:29:31;;;;;;;7.35;5.20;;;15.00;99.90;;;;;;4805419;29;20077;-78
2023/05/08 08:31:56;;;;;;;6.78;5.28;;;15.10;99.90;;;;;;4806484;29;20069;-80
2023/05/08 08:34:22;;;;;;;5.93;4.57;;;15.20;99.90;;;;;;4808830;29;20050;-79
2023/05/08 08:36:48;;;;;;;7.13;4.90;;;15.40;99.90;;;;;;4823631;29;20133;-82
2023/05/08 08:39:14;;;;;;;6.75;5.28;;;15.50;99.90;;;;;;4832324;29;20583;-84
2023/05/08 08:41:40;;;;;;;8.10;5.35;;;15.50;99.90;;;;;;4831514;29;20074;-81
2023/05/08 08:44:06;;;;;;;7.30;5.18;;;15.70;99.90;;;;;;4803395;29;20111;-84
2023/05/08 08:46:32;;;;;;;8.25;5.97;;;15.50;99.90;;;;;;4807313;29;20065;-80
2023/05/08 08:49:01;;;;;;;7.53;5.50;;;15.40;99.90;;;;;;4823748;29;20050;-80
2023/05/08 08:51:53;;;;;;;6.45;5.22;;;15.50;99.90;;;;;;4815751;29;20066;-81
2023/05/08 08:54:30;;;;;;;8.10;5.45;;;15.60;99.90;;;;;;4790753;29;20061;-81
2023/05/08 08:57:02;;;;;;;7.70;5.90;;;15.70;99.90;;;;;;4820161;29;20153;-88
2023/05/08 08:59:28;;;;;;;8.32;6.18;;;15.70;99.90;;;;;;4823719;29;20130;-85
2023/05/08 09:01:57;;;;;;;8.60;5.47;;;15.80;99.90;;;;;;4824002;29;20089;-87
2023/05/08 09:04:26;;;;;;;6.90;5.40;;;16.10;99.90;;;;;;4804696;29;20492;-83
2023/05/08 09:06:52;;;;;;;9.48;6.55;;;16.00;99.90;;;;;;4824015;29;20055;-85
2023/05/08 09:09:18;;;;;;;9.57;5.38;;;16.10;99.90;;;;;;4823995;29;20100;-83
2023/05/08 09:11:45;;;;;;;7.75;5.18;;;16.20;99.90;;;;;;4807316;29;20516;-83
2023/05/08 09:14:11;;;;;;;8.50;5.63;;;16.20;99.90;;;;;;4804990;29;20054;-82
2023/05/08 09:16:38;;;;;;;6.82;5.55;;;16.20;99.90;;;;;;4806526;29;20047;-83
2023/05/08 09:19:04;;;;;;;6.82;5.15;;;16.40;99.90;;;;;;4788734;29;20134;-83
2023/05/08 09:21:31;;;;;;;7.97;5.57;;;16.40;99.90;;;;;;4805083;29;20465;-86
2023/05/08 09:23:58;;;;;;;7.85;5.65;;;16.40;99.90;;;;;;4811031;29;20055;-82
2023/05/08 09:26:41;;;;;;;6.70;4.85;;;16.50;99.90;;;;;;4811031;29;20088;-81
2023/05/08 09:29:11;;;;;;;7.82;5.78;;;16.70;99.90;;;;;;4805244;29;20054;-82
2023/05/08 09:31:42;;;;;;;6.07;5.30;;;16.80;99.90;;;;;;4805147;29;20067;-82
2023/05/08 09:34:09;;;;;;;6.35;5.57;;;16.90;99.90;;;;;;4801139;29;20160;-83
2023/05/08 09:36:37;;;;;;;7.05;5.22;;;17.20;99.90;;;;;;4792726;29;20085;-83
2023/05/08 09:39:03;;;;;;;7.43;5.65;;;17.40;99.90;;;;;;4807652;29;20054;-83
2023/05/08 09:41:29;;;;;;;8.00;5.80;;;17.50;99.90;;;;;;4792255;29;20381;-83
2023/05/08 09:44:05;;;;;;;9.00;6.10;;;17.60;99.90;;;;;;4808157;29;20054;-83
2023/05/08 09:46:35;;;;;;;6.90;6.13;;;17.60;99.90;;;;;;4816371;29;20066;-82
2023/05/08 09:49:02;;;;;;;11.75;5.95;;;17.90;99.90;;;;;;4823590;29;20042;-82
2023/05/08 09:51:30;;;;;;;9.63;6.40;;;18.20;99.90;;;;;;4825895;29;20046;-82
2023/05/08 09:53:58;;;;;;;8.27;6.15;;;18.30;99.90;;;;;;4809147;29;20050;-85
2023/05/08 09:56:35;;;;;;;6.65;5.30;;;18.70;99.90;;;;;;4812758;29;20048;-82
2023/05/08 09:59:03;;;;;;;7.95;5.25;;;19.00;99.90;;;;;;4821975;29;20053;-84
2023/05/08 10:01:38;;;;;;;9.18;6.80;;;19.10;99.90;;;;;;4784038;29;20059;-84
2023/05/08 10:04:04;;;;;;;7.55;6.20;;;19.10;99.90;;;;;;4791583;29;20121;-85
2023/05/08 10:06:31;;;;;;;9.43;6.75;;;19.20;99.90;;;;;;4798251;29;20126;-85
2023/05/08 10:09:11;;;;;;;11.18;7.00;;;19.20;99.90;;;;;;4808702;29;20094;-84
2023/05/08 10:11:38;;;;;;;10.13;8.30;;;19.20;99.90;;;;;;4815780;29;20057;-84
2023/05/08 10:14:04;;;;;;;7.03;6.32;;;19.30;99.90;;;;;;4824846;29;20082;-84
2023/05/08 10:16:35;;;;;;;9.57;7.90;;;19.40;99.90;;;;;;4823937;29;20099;-84
2023/05/08 10:19:07;;;;;;;7.63;6.25;;;19.30;99.90;;;;;;4808863;29;20098;-85
2023/05/08 10:21:37;;;;;;;8.02;6.80;;;19.40;99.90;;;;;;4809157;29;20054;-84
2023/05/08 10:24:07;;;;;;;8.10;6.18;;;19.40;99.90;;;;;;4807551;29;20042;-85
2023/05/08 10:26:35;;;;;;;7.93;6.18;;;19.60;99.90;;;;;;4798161;29;20539;-86
2023/05/08 10:29:07;;;;;;;10.82;7.53;;;19.90;99.90;;;;;;4801014;29;20412;-84
2023/05/08 10:31:35;;;;;;;8.45;7.40;;;19.90;99.90;;;;;;4825408;29;20046;-83
2023/05/08 10:34:02;;;;;;;6.70;5.65;;;20.10;99.90;;;;;;4791033;29;20126;-83
2023/05/08 10:36:30;;;;;;;7.03;5.75;;;20.30;99.90;;;;;;4790718;29;20119;-86
2023/05/08 10:38:59;;;;;;;8.00;5.70;;;20.50;99.90;;;;;;4791063;29;20442;-83
2023/05/08 10:41:40;;;;;;;9.32;6.25;;;20.90;99.90;;;;;;4790990;29;20050;-87
2023/05/08 10:44:10;;;;;;;7.30;5.55;;;21.00;99.90;;;;;;4805627;29;20058;-84
2023/05/08 10:46:53;;;;;;;6.53;5.70;;;21.20;99.90;;;;;;4803084;29;20047;-86
2023/05/08 10:49:39;;;;;;;6.40;5.53;;;21.30;99.90;;;;;;4776977;29;20066;-86
2023/05/08 10:52:26;;;;;;;8.25;6.53;;;21.50;99.90;;;;;;4799902;29;20125;-84
2023/05/08 10:55:03;;;;;;;8.38;7.10;;;21.50;99.90;;;;;;4807948;29;20066;-85
2023/05/08 10:57:30;;;;;;;7.78;6.85;;;21.50;99.90;;;;;;4808548;29;20042;-82
2023/05/08 10:59:56;;;;;;;8.30;5.88;;;21.20;99.90;;;;;;4824943;29;20050;-84
2023/05/08 11:02:30;;;;;;;8.05;6.70;;;21.40;99.90;;;;;;4824106;29;20405;-84
2023/05/08 11:05:17;;;;;;;8.63;6.20;;;21.40;99.90;;;;;;4825358;29;20054;-85
2023/05/08 11:08:02;;;;;;;8.93;6.18;;;21.50;99.90;;;;;;4824908;29;20137;-83
2023/05/08 11:10:35;;;;;;;6.30;5.07;;;21.70;99.90;;;;;;4793400;29;20050;-84
2023/05/08 11:13:03;;;;;;;6.22;5.18;;;22.00;99.90;;;;;;4825097;29;20619;-84
2023/05/08 11:15:36;;;;;;;6.53;5.47;;;22.20;99.90;;;;;;4808645;29;20093;-83
2023/05/08 11:18:07;;;;;;;6.75;5.80;;;22.50;99.90;;;;;;4801695;29;20055;-84
2023/05/08 11:20:41;;;;;;;6.80;5.75;;;22.70;99.90;;;;;;4794845;29;20066;-83
2023/05/08 11:23:23;;;;;;;7.50;6.13;;;22.80;99.90;;;;;;4808366;29;20160;-83
2023/05/08 11:26:02;;;;;;;7.82;5.78;;;23.00;99.90;;;;;;4801190;29;20050;-84
2023/05/08 11:28:35;;;;;;;6.10;5.35;;;23.20;99.90;;;;;;4808030;29;20093;-83
2023/05/08 11:31:06;;;;;;;7.47;6.10;;;23.30;99.90;;;;;;4803671;29;20046;-84
2023/05/08 11:33:36;;;;;;;8.00;6.45;;;23.30;99.90;;;;;;4807582;29;20054;-83
2023/05/08 11:36:24;;;;;;;8.65;6.78;;;23.30;99.90;;;;;;4796204;29;20126;-83
2023/05/08 11:39:16;;;;;;;7.68;6.72;;;23.40;99.90;;;;;;4815112;29;20055;-84
2023/05/08 11:41:42;;;;;;;7.35;5.90;;;23.40;99.90;;;;;;4810202;29;20047;-82
2023/05/08 11:44:24;;;;;;;8.68;6.47;;;23.50;99.90;;;;;;4819120;29;20568;-85
2023/05/08 11:46:54;;;;;;;6.80;6.10;;;23.40;99.90;;;;;;4807251;29;20046;-84
2023/05/08 11:49:23;;;;;;;6.28;5.43;;;23.60;99.90;;;;;;4814174;29;20050;-84
2023/05/08 11:51:54;;;;;;;8.68;6.57;;;23.90;99.90;;;;;;4791792;29;20360;-84
2023/05/08 11:54:24;;;;;;;8.38;6.80;;;23.90;99.90;;;;;;4796809;29;20054;-84
2023/05/08 11:56:51;;;;;;;6.55;5.03;;;24.00;99.90;;;;;;4799321;29;20042;-84
2023/05/08 11:59:18;;;;;;;7.85;7.05;;;24.10;99.90;;;;;;4798528;29;20057;-85
2023/05/08 12:01:50;;;;;;;7.30;6.65;;;23.90;99.90;;;;;;4791695;29;20458;-84
2023/05/08 12:04:16;;;;;;;6.40;5.32;;;23.70;99.90;;;;;;4789487;29;20055;-84
2023/05/08 12:06:43;;;;;;;8.68;6.85;;;24.00;99.90;;;;;;4789667;29;20081;-84
2023/05/08 12:09:16;;;;;;;5.78;5.18;;;24.10;99.90;;;;;;4774798;29;20137;-84
2023/05/08 12:11:44;;;;;;;6.30;5.70;;;24.40;99.90;;;;;;4815754;29;20065;-84
2023/05/08 12:14:12;;;;;;;6.93;6.07;;;24.30;99.90;;;;;;4806727;29;20059;-83
2023/05/08 12:16:38;;;;;;;6.55;5.78;;;24.30;99.90;;;;;;4792857;29;20061;-84
2023/05/08 12:19:11;;;;;;;5.38;4.88;;;24.70;99.90;;;;;;4823798;29;20052;-84
2023/05/08 12:21:38;;;;;;;5.55;4.95;;;24.80;99.90;;;;;;4807565;29;20057;-84
2023/05/08 12:24:10;;;;;;;5.90;5.30;;;24.90;99.90;;;;;;4805880;29;20071;-84
2023/05/08 12:26:36;;;;;;;6.82;5.88;;;25.00;99.90;;;;;;4801092;29;20051;-84
2023/05/08 12:29:06;;;;;;;8.10;5.18;;;25.00;99.90;;;;;;4805560;29;20393;-84
2023/05/08 12:31:36;;;;;;;5.68;5.07;;;25.10;99.90;;;;;;4805297;29;20137;-85
2023/05/08 12:34:03;;;;;;;6.47;5.65;;;25.30;99.90;;;;;;4789129;29;20126;-83
2023/05/08 12:36:36;;;;;;;6.68;5.75;;;25.30;99.90;;;;;;4805139;29;20055;-84
2023/05/08 12:39:16;;;;;;;6.20;5.60;;;25.10;99.90;;;;;;4806148;29;20478;-84
2023/05/08 12:41:46;;;;;;;8.68;6.45;;;25.30;99.90;;;;;;4789302;29;20058;-84
2023/05/08 12:44:35;;;;;;;15.25;7.47;;;25.60;99.90;;;;;;4812121;29;20054;-87
2023/05/08 12:47:01;;;;;;;6.70;6.00;;;25.00;99.90;;;;;;4783472;29;20051;-86
2023/05/08 12:49:43;;;;;;;7.50;5.97;;;24.70;99.90;;;;;;4805358;29;20417;-87
2023/05/08 12:52:13;;;;;;;7.03;6.32;;;24.60;99.90;;;;;;4772783;29;20493;-87
2023/05/08 12:54:45;;;;;;;6.72;6.13;;;25.00;99.90;;;;;;4789094;29;20107;-87
2023/05/08 12:57:27;;;;;;;9.32;7.47;;;25.30;99.90;;;;;;4789317;29;20119;-88
2023/05/08 13:00:03;;;;;;;8.55;7.65;;;25.30;99.90;;;;;;4774002;29;20076;-87
2023/05/08 13:03:02;;;;;;;6.90;6.20;;;25.10;99.30;;;;;;4789521;29;20047;-90